Time;durP1;ratioP1;P1;durP2;ratioP2;P2;SDS_P1;SDS_P2;PMS_P1;PMS_P2;Temp;Humidity;BMP_temperature;BMP_pressure;BME280_temperature;BME280_humidity;BME280_pressure;Samples;Min_cycle;Max_cycle;Signal;HPM_P1;HPM_P2
2022/09/04 00:02:36;;;;;;;8.43;1.88;;;15.40;66.10;;;;;;5058282;28;20052;-62
2022/09/04 00:05:08;;;;;;;2.63;1.83;;;15.30;66.50;;;;;;5075136;28;20029;-61
2022/09/04 00:07:48;;;;;;;5.70;2.03;;;15.30;66.70;;;;;;5067826;28;22258;-62
2022/09/04 00:10:28;;;;;;;3.38;1.88;;;15.30;67.00;;;;;;5070096;28;20701;-62
2022/09/04 00:13:12;;;;;;;4.47;2.13;;;15.10;67.30;;;;;;5080094;28;20032;-61
2022/09/04 00:16:07;;;;;;;4.90;2.08;;;15.10;67.30;;;;;;5051461;28;20500;-62
2022/09/04 00:19:10;;;;;;;1.88;1.70;;;15.20;67.60;;;;;;5070922;28;20075;-62
2022/09/04 00:21:39;;;;;;;3.55;1.60;;;15.10;67.90;;;;;;5066670;28;20089;-61
2022/09/04 00:24:13;;;;;;;5.68;2.30;;;15.00;67.90;;;;;;5079243;28;20048;-62
2022/09/04 00:26:39;;;;;;;5.45;1.98;;;15.00;68.10;;;;;;5071351;28;20051;-62
2022/09/04 00:29:13;;;;;;;3.15;2.22;;;15.00;68.00;;;;;;5084528;28;20044;-62
2022/09/04 00:31:48;;;;;;;4.65;2.15;;;15.00;68.10;;;;;;5070837;28;20712;-62
2022/09/04 00:34:54;;;;;;;5.78;2.28;;;14.90;68.30;;;;;;5070707;28;20503;-62
2022/09/04 00:37:26;;;;;;;3.05;2.05;;;14.90;68.70;;;;;;5079360;28;20127;-62
2022/09/04 00:40:14;;;;;;;5.25;2.30;;;14.90;68.30;;;;;;5070865;28;20040;-62
2022/09/04 00:42:57;;;;;;;6.57;2.40;;;14.90;68.70;;;;;;5072753;28;20051;-62
2022/09/04 00:45:50;;;;;;;4.80;2.08;;;14.90;69.00;;;;;;5076631;28;20038;-62
2022/09/04 00:48:29;;;;;;;4.85;2.13;;;14.90;69.00;;;;;;5048962;28;20168;-62
2022/09/04 00:51:28;;;;;;;3.78;2.00;;;14.80;69.30;;;;;;5031596;28;20048;-61
2022/09/04 00:54:37;;;;;;;3.88;2.08;;;14.80;69.60;;;;;;5032583;28;20047;-62
2022/09/04 00:57:15;;;;;;;4.32;2.00;;;14.80;69.60;;;;;;5044171;28;20072;-62
2022/09/04 01:00:05;;;;;;;4.57;1.70;;;14.80;69.50;;;;;;5050329;28;20041;-61
2022/09/04 01:02:55;;;;;;;5.07;2.35;;;14.80;69.50;;;;;;5057128;28;20037;-61
2022/09/04 01:05:39;;;;;;;4.53;2.30;;;14.80;69.70;;;;;;5040854;28;20095;-61
2022/09/04 01:08:26;;;;;;;5.53;2.30;;;14.70;69.70;;;;;;5059277;28;20589;-62
2022/09/04 01:11:16;;;;;;;5.35;2.13;;;14.70;69.80;;;;;;5051118;28;20052;-62
2022/09/04 01:14:13;;;;;;;4.03;2.20;;;14.70;70.60;;;;;;5062776;28;20037;-62
2022/09/04 01:17:05;;;;;;;5.25;2.25;;;14.60;70.30;;;;;;5065720;28;20055;-62
2022/09/04 01:20:05;;;;;;;5.72;2.47;;;14.60;70.60;;;;;;5063756;28;20052;-62
2022/09/04 01:22:53;;;;;;;4.25;2.25;;;14.70;70.90;;;;;;5054144;28;20056;-61
2022/09/04 01:25:50;;;;;;;5.68;2.33;;;14.60;70.90;;;;;;5070483;28;20358;-61
2022/09/04 01:28:26;;;;;;;4.82;2.40;;;14.60;70.80;;;;;;5056911;28;20032;-62
2022/09/04 01:31:03;;;;;;;6.95;2.63;;;14.60;71.00;;;;;;5060843;28;20047;-62
2022/09/04 01:33:46;;;;;;;4.50;2.90;;;14.60;71.10;;;;;;5063750;28;20048;-61
2022/09/04 01:36:34;;;;;;;6.80;2.63;;;14.50;71.50;;;;;;5062583;28;20044;-61
2022/09/04 01:39:01;;;;;;;3.25;2.22;;;14.50;71.90;;;;;;5062232;28;20044;-62
2022/09/04 01:41:29;;;;;;;4.93;2.58;;;14.40;71.90;;;;;;5069121;28;20079;-62
2022/09/04 01:43:54;;;;;;;4.88;2.67;;;14.40;72.20;;;;;;5066429;28;20082;-62
2022/09/04 01:46:37;;;;;;;3.65;2.60;;;14.40;72.30;;;;;;5064903;28;20068;-62
2022/09/04 01:49:15;;;;;;;6.32;2.85;;;14.40;72.90;;;;;;5054992;28;20052;-62
2022/09/04 01:52:01;;;;;;;6.07;2.90;;;14.30;73.10;;;;;;5056517;28;20040;-62
2022/09/04 01:54:52;;;;;;;6.97;3.10;;;14.30;73.20;;;;;;5066829;28;20498;-62
2022/09/04 01:57:56;;;;;;;5.90;2.70;;;14.20;73.60;;;;;;5053743;28;20055;-62
2022/09/04 02:00:23;;;;;;;5.45;2.88;;;14.10;74.20;;;;;;5052179;28;20037;-62
2022/09/04 02:03:01;;;;;;;5.60;2.60;;;14.10;74.10;;;;;;5060392;28;20123;-62
2022/09/04 02:06:00;;;;;;;5.20;2.72;;;14.00;74.70;;;;;;5063927;28;20036;-62
2022/09/04 02:08:54;;;;;;;4.78;2.67;;;14.00;75.20;;;;;;5051183;28;20041;-62
2022/09/04 02:11:26;;;;;;;4.32;2.35;;;14.00;75.50;;;;;;5035101;28;20049;-62
2022/09/04 02:14:21;;;;;;;4.50;2.85;;;13.90;75.50;;;;;;5055220;28;20033;-61
2022/09/04 02:17:17;;;;;;;5.63;3.10;;;13.80;76.40;;;;;;5053879;28;20120;-62
2022/09/04 02:20:07;;;;;;;4.82;2.65;;;13.80;77.00;;;;;;5050340;28;20079;-61
2022/09/04 02:23:16;;;;;;;4.77;2.93;;;13.70;77.10;;;;;;5055677;28;20104;-62
2022/09/04 02:25:54;;;;;;;5.07;3.00;;;13.70;78.00;;;;;;5029188;28;20068;-62
2022/09/04 02:28:36;;;;;;;5.55;3.05;;;13.60;78.10;;;;;;5051399;28;20086;-61
2022/09/04 02:31:07;;;;;;;5.13;2.80;;;13.60;78.40;;;;;;5051760;28;20127;-61
2022/09/04 02:33:41;;;;;;;6.05;2.80;;;13.50;78.70;;;;;;5051200;28;20041;-61
2022/09/04 02:36:30;;;;;;;8.60;3.25;;;13.40;79.40;;;;;;5060359;28;20036;-61
2022/09/04 02:39:13;;;;;;;4.97;3.13;;;13.30;80.40;;;;;;5014637;28;20113;-61
2022/09/04 02:42:18;;;;;;;3.97;2.78;;;13.30;81.00;;;;;;5064612;28;20105;-62
2022/09/04 02:45:11;;;;;;;4.45;3.28;;;13.20;81.30;;;;;;5022067;28;20040;-61
2022/09/04 02:47:59;;;;;;;5.28;3.25;;;13.20;81.70;;;;;;5035100;28;20115;-62
2022/09/04 02:50:46;;;;;;;5.75;2.55;;;13.10;82.30;;;;;;5042278;28;20072;-62
2022/09/04 02:53:37;;;;;;;4.65;3.00;;;13.10;82.40;;;;;;5052910;28;20148;-62
2022/09/04 02:56:17;;;;;;;4.45;2.88;;;13.00;83.10;;;;;;5058210;28;20036;-60
2022/09/04 02:59:02;;;;;;;;;;;13.00;83.30;;;;;;5047844;28;20156;-59
2022/09/04 03:01:35;;;;;;;5.25;2.70;;;12.90;84.20;;;;;;5051805;28;19928;-62
2022/09/04 03:04:23;;;;;;;4.55;3.00;;;12.90;83.90;;;;;;5036668;28;20036;-62
2022/09/04 03:06:59;;;;;;;5.50;3.00;;;12.80;84.50;;;;;;5054131;28;20036;-61
2022/09/04 03:10:13;;;;;;;5.88;2.92;;;12.80;84.50;;;;;;5059443;28;20044;-62
2022/09/04 03:12:50;;;;;;;7.40;3.10;;;12.70;86.60;;;;;;5054867;28;20076;-61
2022/09/04 03:15:45;;;;;;;5.63;2.90;;;12.60;86.20;;;;;;5066702;28;20040;-62
2022/09/04 03:18:36;;;;;;;4.45;2.95;;;12.60;86.80;;;;;;5066287;28;20048;-62
2022/09/04 03:21:31;;;;;;;5.57;3.03;;;12.60;87.40;;;;;;5068084;28;20048;-62
2022/09/04 03:24:19;;;;;;;5.97;3.00;;;12.60;87.90;;;;;;5068742;28;20033;-62
2022/09/04 03:27:10;;;;;;;4.00;3.17;;;12.60;87.90;;;;;;5053779;28;20033;-62
2022/09/04 03:30:00;;;;;;;5.15;3.17;;;12.50;88.00;;;;;;5057475;28;20068;-62
2022/09/04 03:32:40;;;;;;;5.47;3.22;;;12.50;89.00;;;;;;5059951;28;20113;-62
2022/09/04 03:35:33;;;;;;;4.90;2.95;;;12.50;88.80;;;;;;5041249;28;20114;-61
2022/09/04 03:38:15;;;;;;;6.20;3.20;;;12.50;89.10;;;;;;5062572;28;20046;-62
2022/09/04 03:40:56;;;;;;;4.10;3.15;;;12.40;89.40;;;;;;5039326;28;20322;-62
2022/09/04 03:43:41;;;;;;;4.70;3.30;;;12.40;89.40;;;;;;5059954;28;20033;-62
2022/09/04 03:46:33;;;;;;;4.18;3.15;;;12.40;90.10;;;;;;5065689;28;20071;-62
2022/09/04 03:49:42;;;;;;;5.60;3.40;;;12.30;90.30;;;;;;5085403;28;20613;-62
2022/09/04 03:52:08;;;;;;;5.63;3.30;;;12.30;90.50;;;;;;5019128;28;20067;-62
2022/09/04 03:54:42;;;;;;;4.43;3.17;;;12.30;90.20;;;;;;5075607;28;20391;-62
2022/09/04 03:57:50;;;;;;;5.85;3.60;;;12.20;90.50;;;;;;5079695;28;20039;-62
2022/09/04 04:00:20;;;;;;;6.15;3.63;;;12.20;90.90;;;;;;5078327;28;20047;-62
2022/09/04 04:03:01;;;;;;;4.65;3.55;;;12.20;90.80;;;;;;5065404;28;20036;-62
2022/09/04 04:05:52;;;;;;;3.90;3.50;;;12.10;90.90;;;;;;5072914;28;20044;-62
2022/09/04 04:08:26;;;;;;;;;;;12.10;91.20;;;;;;5069704;28;20086;-62
2022/09/04 04:11:15;;;;;;;6.53;3.40;;;12.00;91.80;;;;;;5070755;28;20284;-62
2022/09/04 04:13:55;;;;;;;4.75;3.55;;;12.00;91.60;;;;;;5086952;28;20115;-62
2022/09/04 04:16:21;;;;;;;;;;;12.00;91.50;;;;;;5070666;28;20032;-62
2022/09/04 04:18:46;;;;;;;5.82;3.63;;;12.00;92.00;;;;;;5080792;28;19969;-62
2022/09/04 04:21:38;;;;;;;5.78;3.35;;;11.90;91.20;;;;;;5082812;28;20080;-61
2022/09/04 04:24:28;;;;;;;5.72;3.40;;;11.90;91.60;;;;;;5075891;28;20072;-62
2022/09/04 04:27:13;;;;;;;7.00;3.45;;;11.90;91.70;;;;;;5087115;28;20050;-62
2022/09/04 04:29:59;;;;;;;4.30;3.42;;;11.90;92.30;;;;;;5082417;28;20368;-62
2022/09/04 04:32:35;;;;;;;6.95;3.65;;;11.90;92.20;;;;;;5079710;28;20048;-62
2022/09/04 04:35:17;;;;;;;5.47;3.60;;;11.90;92.20;;;;;;5076572;28;20047;-62
2022/09/04 04:38:17;;;;;;;5.15;3.72;;;11.90;92.20;;;;;;5086374;28;20044;-62
2022/09/04 04:41:06;;;;;;;5.83;3.77;;;11.80;92.70;;;;;;5057146;28;20111;-62
2022/09/04 04:44:14;;;;;;;4.22;3.13;;;11.80;92.80;;;;;;5070077;28;20075;-62
2022/09/04 04:46:45;;;;;;;4.70;3.80;;;11.70;93.20;;;;;;5069892;28;20128;-61
2022/09/04 04:49:21;;;;;;;7.13;3.80;;;11.80;92.80;;;;;;5085397;28;20047;-62
2022/09/04 04:52:18;;;;;;;4.30;3.47;;;11.70;92.90;;;;;;5072231;28;20685;-62
2022/09/04 04:55:10;;;;;;;5.43;3.25;;;11.70;93.40;;;;;;5054865;28;20044;-62
2022/09/04 04:57:52;;;;;;;5.03;3.83;;;11.70;93.20;;;;;;5083308;28;20039;-62
2022/09/04 05:00:43;;;;;;;8.95;3.72;;;11.70;93.70;;;;;;5073804;28;20054;-62
2022/09/04 05:03:31;;;;;;;5.75;3.53;;;11.70;93.20;;;;;;5068601;28;20139;-62
2022/09/04 05:06:05;;;;;;;4.95;3.60;;;11.70;93.70;;;;;;5067264;28;20120;-62
2022/09/04 05:08:43;;;;;;;5.57;3.70;;;11.70;93.40;;;;;;5068800;28;20043;-61
2022/09/04 05:11:40;;;;;;;7.18;3.85;;;11.70;93.60;;;;;;5073378;28;20032;-62
2022/09/04 05:14:29;;;;;;;5.13;3.25;;;11.70;93.80;;;;;;5071604;28;20518;-62
2022/09/04 05:17:19;;;;;;;3.95;3.42;;;11.70;93.90;;;;;;5087365;28;20047;-62
2022/09/04 05:19:49;;;;;;;5.33;3.80;;;11.70;94.00;;;;;;5080643;28;20028;-61
2022/09/04 05:22:20;;;;;;;4.75;3.78;;;11.80;93.90;;;;;;5085607;28;20098;-61
2022/09/04 05:24:54;;;;;;;6.45;3.90;;;11.70;93.90;;;;;;5077294;28;20040;-61
2022/09/04 05:27:32;;;;;;;3.88;3.47;;;11.80;94.20;;;;;;5086406;28;20043;-62
2022/09/04 05:30:11;;;;;;;5.53;3.40;;;11.80;94.20;;;;;;5064023;28;20040;-62
2022/09/04 05:33:05;;;;;;;6.25;3.72;;;11.80;94.20;;;;;;5083471;28;20036;-61
2022/09/04 05:36:05;;;;;;;6.20;3.70;;;11.90;94.60;;;;;;5082743;28;20043;-61
2022/09/04 05:39:09;;;;;;;6.13;3.95;;;11.90;94.80;;;;;;5042840;28;20048;-62
2022/09/04 05:42:12;;;;;;;5.55;3.75;;;11.90;95.00;;;;;;5067379;28;20045;-61
2022/09/04 05:45:11;;;;;;;4.88;3.70;;;12.00;94.90;;;;;;5079916;28;20036;-59
2022/09/04 05:47:49;;;;;;;5.57;3.50;;;12.10;94.70;;;;;;5087271;28;20048;-62
2022/09/04 05:50:39;;;;;;;4.47;3.63;;;12.30;94.20;;;;;;5062709;28;20138;-62
2022/09/04 05:53:35;;;;;;;5.32;3.90;;;12.40;94.00;;;;;;5084358;28;22122;-62
2022/09/04 05:56:36;;;;;;;6.30;4.10;;;12.60;93.80;;;;;;5088815;28;20078;-62
2022/09/04 05:59:32;;;;;;;4.15;3.35;;;12.70;93.40;;;;;;5089249;28;20044;-61
2022/09/04 06:02:19;;;;;;;4.75;3.75;;;12.90;93.10;;;;;;5071709;28;20044;-62
2022/09/04 06:05:27;;;;;;;4.63;4.05;;;13.00;92.60;;;;;;5061636;28;20396;-62
2022/09/04 06:08:16;;;;;;;8.18;3.70;;;13.20;92.70;;;;;;5082304;28;20036;-62
2022/09/04 06:10:59;;;;;;;5.78;4.47;;;13.30;92.50;;;;;;5078728;28;20118;-62
2022/09/04 06:13:58;;;;;;;6.85;3.72;;;13.40;92.30;;;;;;5089037;28;20032;-62
2022/09/04 06:16:51;;;;;;;5.47;4.10;;;13.60;92.80;;;;;;5062606;28;20036;-62
2022/09/04 06:19:43;;;;;;;4.35;3.63;;;13.80;92.60;;;;;;5073677;28;20508;-61
2022/09/04 06:22:39;;;;;;;6.10;3.90;;;13.90;92.50;;;;;;5089914;28;20047;-62
2022/09/04 06:25:16;;;;;;;7.43;5.00;;;14.10;92.10;;;;;;5083689;28;20043;-62
2022/09/04 06:27:50;;;;;;;5.97;4.43;;;14.20;91.70;;;;;;5087279;28;20089;-62
2022/09/04 06:30:16;;;;;;;5.40;3.88;;;14.40;91.50;;;;;;5079892;28;20431;-61
2022/09/04 06:33:14;;;;;;;4.15;3.72;;;14.60;91.50;;;;;;5077185;28;20032;-62
2022/09/04 06:35:53;;;;;;;4.95;3.67;;;14.90;91.00;;;;;;5064395;28;20093;-62
2022/09/04 06:38:33;;;;;;;6.30;3.78;;;15.20;90.80;;;;;;5086531;28;20036;-62
2022/09/04 06:41:23;;;;;;;4.67;4.03;;;15.40;90.10;;;;;;5075822;28;20189;-63
2022/09/04 06:43:57;;;;;;;4.28;3.40;;;15.60;89.60;;;;;;5079647;28;20358;-62
2022/09/04 06:46:47;;;;;;;5.38;3.47;;;15.80;90.00;;;;;;5081396;28;20059;-63
2022/09/04 06:49:26;;;;;;;5.20;3.42;;;16.00;87.80;;;;;;5074415;28;20362;-62
2022/09/04 06:52:20;;;;;;;4.38;3.42;;;16.20;88.80;;;;;;5070545;28;20040;-62
2022/09/04 06:55:05;;;;;;;4.75;3.47;;;16.50;86.80;;;;;;5054587;28;20550;-63
2022/09/04 06:58:01;;;;;;;4.75;3.40;;;16.80;86.60;;;;;;5074837;28;20045;-64
2022/09/04 07:00:33;;;;;;;5.50;3.25;;;17.00;82.10;;;;;;5078298;28;20049;-63
2022/09/04 07:03:10;;;;;;;8.77;3.42;;;17.20;84.00;;;;;;5072929;28;20492;-62
2022/09/04 07:05:56;;;;;;;4.13;3.70;;;17.50;83.10;;;;;;5070451;28;20032;-64
2022/09/04 07:08:36;;;;;;;5.00;3.35;;;17.60;77.40;;;;;;5071156;28;20036;-63
2022/09/04 07:11:39;;;;;;;6.85;3.20;;;17.80;80.30;;;;;;5081609;28;20048;-63
2022/09/04 07:14:31;;;;;;;3.78;3.08;;;18.20;77.70;;;;;;5093195;28;20373;-63
2022/09/04 07:17:20;;;;;;;5.13;3.40;;;18.30;74.10;;;;;;5091836;28;20051;-64
2022/09/04 07:20:03;;;;;;;5.32;3.42;;;18.50;75.80;;;;;;5059241;28;20076;-63
2022/09/04 07:22:56;;;;;;;5.20;3.17;;;18.70;74.10;;;;;;5059981;28;20044;-61
2022/09/04 07:25:36;;;;;;;4.95;3.55;;;18.80;72.50;;;;;;5072824;28;20084;-61
2022/09/04 07:28:25;;;;;;;5.85;3.42;;;19.00;72.20;;;;;;5086552;28;20115;-61
2022/09/04 07:31:05;;;;;;;4.30;3.45;;;19.20;71.90;;;;;;5070641;28;20040;-62
2022/09/04 07:33:57;;;;;;;4.93;3.22;;;19.40;72.30;;;;;;5071442;28;20041;-64
2022/09/04 07:37:00;;;;;;;6.55;3.28;;;19.50;71.20;;;;;;5040845;28;20836;-61
2022/09/04 07:39:47;;;;;;;4.47;3.40;;;19.60;70.40;;;;;;5068397;28;20063;-61
2022/09/04 07:42:19;;;;;;;4.60;3.35;;;19.70;68.30;;;;;;5076853;28;20033;-62
2022/09/04 07:44:59;;;;;;;5.88;2.95;;;19.90;69.10;;;;;;5085630;28;20059;-62
2022/09/04 07:47:42;;;;;;;4.97;3.25;;;20.20;68.80;;;;;;5091433;28;20048;-62
2022/09/04 07:50:23;;;;;;;5.05;3.13;;;20.20;68.50;;;;;;5089531;28;20083;-63
2022/09/04 07:52:52;;;;;;;4.95;3.40;;;20.30;66.90;;;;;;5065815;28;20536;-62
2022/09/04 07:55:20;;;;;;;5.68;3.00;;;20.60;67.10;;;;;;5072815;28;20047;-62
2022/09/04 07:57:51;;;;;;;3.30;2.97;;;20.90;67.40;;;;;;5079334;28;20476;-63
2022/09/04 08:00:21;;;;;;;3.78;3.00;;;21.10;66.60;;;;;;5071539;28;20051;-62
2022/09/04 08:03:05;;;;;;;5.55;3.13;;;21.10;64.60;;;;;;5075530;28;20099;-64
2022/09/04 08:05:53;;;;;;;6.20;2.83;;;21.30;63.00;;;;;;5072900;28;20064;-63
2022/09/04 08:08:37;;;;;;;4.30;3.10;;;21.30;62.90;;;;;;5080189;28;20060;-62
2022/09/04 08:11:30;;;;;;;5.20;2.40;;;21.40;64.10;;;;;;5074097;28;20051;-62
2022/09/04 08:14:32;;;;;;;4.70;2.30;;;21.50;61.20;;;;;;5072877;28;20093;-63
2022/09/04 08:17:41;;;;;;;4.80;2.30;;;21.50;61.30;;;;;;5056948;28;20427;-63
2022/09/04 08:20:39;;;;;;;4.05;2.80;;;21.60;60.50;;;;;;5084706;28;20036;-62
2022/09/04 08:23:23;;;;;;;5.47;2.88;;;21.30;61.10;;;;;;5088441;28;20402;-62
2022/09/04 08:25:57;;;;;;;5.30;2.40;;;21.50;61.60;;;;;;5067116;28;20036;-63
2022/09/04 08:28:45;;;;;;;4.47;2.47;;;21.50;61.20;;;;;;5074126;28;20047;-61
2022/09/04 08:31:28;;;;;;;5.10;2.78;;;21.70;60.40;;;;;;5089420;28;20051;-62
2022/09/04 08:34:31;;;;;;;4.43;2.50;;;21.70;59.90;;;;;;5079927;28;20555;-63
2022/09/04 08:37:18;;;;;;;5.13;2.63;;;21.90;59.70;;;;;;5084765;28;20046;-62
2022/09/04 08:40:10;;;;;;;3.95;2.47;;;22.40;59.20;;;;;;5070286;28;20040;-63
2022/09/04 08:43:10;;;;;;;6.45;2.47;;;22.90;58.00;;;;;;5088904;28;20093;-62
2022/09/04 08:45:47;;;;;;;7.55;2.90;;;23.40;56.10;;;;;;5080262;28;20043;-62
2022/09/04 08:48:41;;;;;;;3.85;2.55;;;23.90;56.80;;;;;;5071913;28;20472;-63
2022/09/04 08:51:12;;;;;;;4.35;2.58;;;24.30;55.60;;;;;;5068830;28;20052;-63
2022/09/04 08:53:56;;;;;;;6.75;2.72;;;24.70;54.50;;;;;;5086416;28;20062;-62
2022/09/04 08:56:46;;;;;;;4.88;2.67;;;25.10;52.50;;;;;;5065596;28;20039;-64
2022/09/04 08:59:30;;;;;;;5.25;2.65;;;25.40;52.20;;;;;;5090245;28;20040;-63
2022/09/04 09:02:18;;;;;;;4.82;2.58;;;25.40;53.20;;;;;;5078808;28;20050;-64
2022/09/04 09:05:28;;;;;;;4.05;2.50;;;25.20;51.50;;;;;;5078721;28;20041;-65
2022/09/04 09:08:23;;;;;;;2.80;2.47;;;24.80;52.20;;;;;;5087992;28;20123;-63
2022/09/04 09:11:19;;;;;;;5.88;2.42;;;24.40;53.20;;;;;;5088168;28;20032;-64
2022/09/04 09:14:23;;;;;;;5.32;2.20;;;24.20;54.00;;;;;;5087634;28;20044;-63
2022/09/04 09:17:11;;;;;;;3.25;2.28;;;24.40;53.60;;;;;;5090457;28;20039;-63
2022/09/04 09:19:59;;;;;;;4.85;2.38;;;24.50;53.60;;;;;;5090643;28;20105;-63
2022/09/04 09:22:38;;;;;;;4.85;2.33;;;24.60;53.30;;;;;;5090301;28;20813;-64
2022/09/04 09:25:13;;;;;;;4.72;2.45;;;24.70;52.90;;;;;;5094647;28;20032;-63
2022/09/04 09:28:04;;;;;;;4.97;2.25;;;24.80;53.30;;;;;;5083255;28;20044;-64
2022/09/04 09:30:46;;;;;;;3.17;2.15;;;24.80;53.00;;;;;;5055197;28;20055;-65
2022/09/04 09:33:52;;;;;;;3.08;2.20;;;24.70;52.90;;;;;;5090700;28;20479;-63
2022/09/04 09:36:59;;;;;;;2.65;2.10;;;24.50;53.20;;;;;;5090090;28;20047;-64
2022/09/04 09:39:27;;;;;;;4.32;2.40;;;24.40;53.80;;;;;;5079713;28;20036;-64
2022/09/04 09:42:17;;;;;;;4.18;2.17;;;24.00;54.20;;;;;;5078856;28;20059;-64
2022/09/04 09:45:05;;;;;;;4.35;2.20;;;24.00;54.20;;;;;;5060378;28;20085;-63
2022/09/04 09:48:02;;;;;;;7.75;1.98;;;23.70;54.60;;;;;;5087487;28;20399;-64
2022/09/04 09:50:59;;;;;;;3.13;2.00;;;23.80;54.90;;;;;;5082899;28;20078;-64
2022/09/04 09:53:34;;;;;;;3.08;1.98;;;23.70;54.50;;;;;;5076816;28;20045;-63
2022/09/04 09:56:18;;;;;;;2.63;1.98;;;23.70;54.70;;;;;;5081638;28;20624;-63
2022/09/04 09:59:00;;;;;;;5.13;2.13;;;23.70;54.30;;;;;;5093704;28;20374;-64
2022/09/04 10:02:07;;;;;;;5.53;2.10;;;23.80;53.90;;;;;;5083184;28;20040;-64
2022/09/04 10:04:58;;;;;;;5.45;1.98;;;23.90;54.00;;;;;;5078790;28;20052;-64
2022/09/04 10:07:35;;;;;;;4.65;2.03;;;23.90;53.60;;;;;;5081634;28;20123;-62
2022/09/04 10:10:17;;;;;;;2.58;1.90;;;24.00;53.90;;;;;;5078657;28;20052;-64
2022/09/04 10:12:42;;;;;;;7.32;2.10;;;24.00;53.70;;;;;;5075391;28;20040;-63
2022/09/04 10:15:13;;;;;;;3.88;1.70;;;24.00;53.70;;;;;;5086182;28;20606;-62
2022/09/04 10:17:57;;;;;;;4.85;2.10;;;24.00;53.80;;;;;;5091026;28;20043;-63
2022/09/04 10:20:45;;;;;;;4.57;2.17;;;23.90;53.70;;;;;;5089566;28;20047;-64
2022/09/04 10:23:35;;;;;;;2.17;1.90;;;23.90;53.70;;;;;;5090306;28;20044;-64
2022/09/04 10:26:13;;;;;;;;;;;24.10;53.30;;;;;;5084614;28;20114;-63
2022/09/04 10:28:58;;;;;;;4.90;2.08;;;24.00;53.60;;;;;;5092996;28;19916;-61
2022/09/04 10:31:46;;;;;;;2.80;2.05;;;24.10;53.30;;;;;;5087042;28;20036;-62
2022/09/04 10:34:45;;;;;;;4.72;2.00;;;24.10;52.60;;;;;;5090232;28;20071;-63
2022/09/04 10:37:21;;;;;;;2.97;1.70;;;24.20;52.70;;;;;;5088510;28;20147;-63
2022/09/04 10:40:34;;;;;;;3.05;2.00;;;24.10;52.80;;;;;;5089608;28;20055;-63
2022/09/04 10:42:59;;;;;;;5.40;1.70;;;24.30;52.60;;;;;;4995353;28;20061;-62
2022/09/04 10:45:37;;;;;;;3.25;1.92;;;24.30;52.80;;;;;;5073718;28;20039;-63
2022/09/04 10:48:17;;;;;;;3.35;1.88;;;24.40;52.10;;;;;;5087224;28;20098;-64
2022/09/04 10:51:02;;;;;;;;;;;24.40;52.40;;;;;;5083280;28;20695;-63
2022/09/04 10:53:50;;;;;;;4.53;2.20;;;24.60;52.90;;;;;;5084429;28;19955;-62
2022/09/04 10:56:21;;;;;;;5.22;2.00;;;24.70;52.20;;;;;;5091927;28;20122;-62
2022/09/04 10:58:47;;;;;;;3.40;2.10;;;24.70;52.30;;;;;;5074374;28;20050;-62
2022/09/04 11:01:19;;;;;;;2.75;1.80;;;24.70;52.00;;;;;;5090313;28;20032;-63
2022/09/04 11:03:58;;;;;;;3.72;1.60;;;24.90;52.20;;;;;;5077655;28;20040;-63
2022/09/04 11:06:51;;;;;;;2.13;1.90;;;25.00;52.10;;;;;;5082911;28;20036;-62
2022/09/04 11:09:54;;;;;;;3.17;1.67;;;25.10;51.70;;;;;;5073450;28;20402;-62
2022/09/04 11:12:39;;;;;;;3.05;1.70;;;25.20;51.30;;;;;;5078934;28;20040;-61
2022/09/04 11:15:30;;;;;;;2.42;1.70;;;25.30;51.00;;;;;;5088094;28;20094;-62
2022/09/04 11:18:24;;;;;;;2.83;1.85;;;25.30;50.90;;;;;;5083542;28;20041;-63
2022/09/04 11:21:20;;;;;;;3.33;1.80;;;25.40;51.10;;;;;;5082633;28;20514;-63
2022/09/04 11:24:12;;;;;;;3.67;1.52;;;25.60;50.70;;;;;;5091100;28;20061;-63
2022/09/04 11:27:02;;;;;;;2.15;1.67;;;25.50;51.00;;;;;;5092349;28;20051;-64
2022/09/04 11:30:06;;;;;;;2.47;1.67;;;25.60;50.60;;;;;;5092369;28;20549;-63
2022/09/04 11:32:57;;;;;;;7.22;1.88;;;25.50;50.80;;;;;;5088789;28;20040;-63
2022/09/04 11:35:45;;;;;;;2.65;1.73;;;25.40;51.90;;;;;;5089400;28;20051;-64
2022/09/04 11:38:28;;;;;;;2.17;1.60;;;25.50;52.00;;;;;;5087345;28;20496;-65
2022/09/04 11:41:15;;;;;;;5.20;1.70;;;25.60;52.20;;;;;;5072919;28;20037;-63
2022/09/04 11:43:53;;;;;;;5.82;1.80;;;25.60;51.60;;;;;;5075608;28;20044;-63
2022/09/04 11:46:37;;;;;;;5.65;1.80;;;25.70;52.10;;;;;;5084872;28;20048;-65
2022/09/04 11:49:52;;;;;;;2.90;1.80;;;25.70;52.20;;;;;;5087616;28;20101;-64
2022/09/04 11:52:40;;;;;;;3.83;1.92;;;25.80;52.00;;;;;;5060752;28;20059;-63
2022/09/04 11:55:22;;;;;;;4.05;1.92;;;25.80;51.60;;;;;;5083248;28;20036;-63
2022/09/04 11:57:59;;;;;;;2.55;1.67;;;25.70;52.10;;;;;;5071526;28;20070;-63
2022/09/04 12:00:30;;;;;;;2.83;1.77;;;25.70;51.90;;;;;;5071368;28;20079;-64
2022/09/04 12:03:15;;;;;;;3.47;1.77;;;25.70;51.90;;;;;;5060329;28;20036;-64
2022/09/04 12:05:58;;;;;;;2.03;1.80;;;25.70;53.20;;;;;;5073416;28;20472;-64
2022/09/04 12:08:57;;;;;;;1.88;1.60;;;25.80;52.40;;;;;;5090643;28;20051;-65
2022/09/04 12:11:55;;;;;;;3.60;2.03;;;26.00;52.20;;;;;;5090055;28;20425;-64
2022/09/04 12:14:50;;;;;;;2.47;1.60;;;26.10;51.30;;;;;;5089139;28;20379;-64
2022/09/04 12:17:46;;;;;;;3.20;1.73;;;26.30;51.50;;;;;;5075398;28;20054;-63
2022/09/04 12:20:49;;;;;;;5.90;2.20;;;26.30;51.10;;;;;;5077239;28;20048;-63
2022/09/04 12:23:28;;;;;;;3.95;1.73;;;26.30;50.40;;;;;;5079408;28;20486;-63
2022/09/04 12:26:21;;;;;;;2.22;1.80;;;26.40;51.10;;;;;;5078943;28;20038;-64
2022/09/04 12:29:16;;;;;;;3.65;1.92;;;26.60;51.10;;;;;;5079388;28;20039;-64
2022/09/04 12:32:07;;;;;;;2.85;1.80;;;26.60;50.50;;;;;;5075573;28;20043;-64
2022/09/04 12:34:53;;;;;;;3.05;1.73;;;26.70;51.00;;;;;;5076218;28;20843;-63
2022/09/04 12:37:49;;;;;;;2.38;1.75;;;26.70;50.20;;;;;;5079345;28;20045;-64
2022/09/04 12:40:30;;;;;;;2.00;1.80;;;26.80;50.50;;;;;;5069417;28;20036;-63
2022/09/04 12:43:20;;;;;;;8.23;2.40;;;27.00;49.90;;;;;;5078490;28;20036;-64
2022/09/04 12:46:21;;;;;;;3.30;2.23;;;27.10;49.60;;;;;;5077039;28;20150;-65
2022/09/04 12:49:26;;;;;;;2.15;1.90;;;27.50;50.30;;;;;;5075922;28;20298;-63
2022/09/04 12:52:16;;;;;;;5.03;1.95;;;28.00;48.60;;;;;;5037147;28;20051;-64
2022/09/04 12:55:08;;;;;;;3.65;1.98;;;29.60;46.90;;;;;;5076320;28;20067;-64
2022/09/04 12:57:41;;;;;;;2.08;1.80;;;30.90;45.60;;;;;;5079669;28;20040;-66
2022/09/04 13:00:12;;;;;;;1.80;1.50;;;32.70;43.20;;;;;;5075327;28;20094;-63
2022/09/04 13:02:56;;;;;;;3.97;1.95;;;34.00;41.20;;;;;;5078496;28;20622;-63
2022/09/04 13:06:02;;;;;;;4.70;1.80;;;34.80;41.10;;;;;;5055297;28;20568;-64
2022/09/04 13:08:58;;;;;;;2.38;1.70;;;35.20;39.10;;;;;;5056786;28;20059;-65
2022/09/04 13:11:46;;;;;;;3.25;1.75;;;35.50;38.30;;;;;;5078833;28;20488;-65
2022/09/04 13:14:40;;;;;;;2.20;1.85;;;35.40;37.00;;;;;;5081141;28;20097;-65
2022/09/04 13:17:22;;;;;;;3.33;1.80;;;35.20;38.30;;;;;;5079711;28;20047;-65
2022/09/04 13:20:01;;;;;;;3.95;2.20;;;34.90;37.80;;;;;;5081982;28;20044;-66
2022/09/04 13:22:45;;;;;;;2.37;1.73;;;33.90;38.60;;;;;;5077262;28;20087;-65
2022/09/04 13:25:38;;;;;;;2.55;1.77;;;34.50;38.30;;;;;;5080870;28;20038;-65
2022/09/04 13:28:29;;;;;;;2.30;1.90;;;34.60;38.40;;;;;;5082416;28;20047;-64
2022/09/04 13:31:25;;;;;;;2.00;1.80;;;35.60;37.40;;;;;;5075503;28;20044;-65
2022/09/04 13:33:55;;;;;;;3.17;1.70;;;36.20;37.00;;;;;;5080661;28;20032;-64
2022/09/04 13:36:39;;;;;;;2.42;1.70;;;36.50;36.40;;;;;;5079535;28;20036;-65
2022/09/04 13:39:27;;;;;;;1.85;1.42;;;36.50;35.30;;;;;;5079992;28;20118;-64
2022/09/04 13:41:58;;;;;;;3.88;1.92;;;36.50;35.90;;;;;;5081747;28;20795;-65
2022/09/04 13:44:37;;;;;;;1.85;1.58;;;36.60;36.40;;;;;;5076642;28;20033;-64
2022/09/04 13:47:19;;;;;;;2.03;1.80;;;36.80;36.00;;;;;;5077261;28;20040;-65
2022/09/04 13:50:07;;;;;;;3.65;2.00;;;35.40;35.20;;;;;;5074789;28;20033;-64
2022/09/04 13:52:54;;;;;;;3.50;1.90;;;33.90;36.90;;;;;;5071759;28;20132;-65
2022/09/04 13:55:35;;;;;;;2.42;1.88;;;33.30;37.90;;;;;;5071963;28;20044;-64
2022/09/04 13:58:09;;;;;;;2.92;1.70;;;32.20;39.20;;;;;;5079724;28;20459;-64
2022/09/04 14:00:39;;;;;;;1.90;1.65;;;31.00;40.60;;;;;;5077164;28;20503;-65
2022/09/04 14:03:10;;;;;;;3.42;1.67;;;30.40;42.00;;;;;;5039957;28;20044;-67
2022/09/04 14:05:36;;;;;;;2.88;1.77;;;29.60;42.90;;;;;;5073571;28;20068;-65
2022/09/04 14:08:11;;;;;;;4.90;2.10;;;29.20;43.60;;;;;;5072866;28;20111;-65
2022/09/04 14:10:54;;;;;;;3.38;1.85;;;28.90;43.80;;;;;;5076080;28;20143;-64
2022/09/04 14:13:45;;;;;;;1.90;1.80;;;28.50;44.50;;;;;;5065200;28;20040;-65
2022/09/04 14:16:13;;;;;;;2.83;2.00;;;28.20;45.40;;;;;;5081547;28;20072;-64
2022/09/04 14:19:10;;;;;;;2.67;1.80;;;28.10;45.80;;;;;;5073900;28;20123;-64
2022/09/04 14:22:03;;;;;;;3.17;2.17;;;27.80;46.30;;;;;;5078072;28;20031;-64
2022/09/04 14:25:00;;;;;;;5.78;2.22;;;27.60;46.60;;;;;;5075488;28;21646;-65
2022/09/04 14:27:35;;;;;;;3.05;1.90;;;27.50;47.20;;;;;;5088365;28;20564;-65